sensor_id;sensor_type;location;lat;lon;timestamp;pressure;altitude;pressure_sealevel;temperature;humidity
9139;BME280;4604;48.616;9.548;2023-10-31T00:02:25;95367.50;;;12.04;100.00
9139;BME280;4604;48.616;9.548;2023-10-31T00:04:51;95372.78;;;12.04;100.00
9139;BME280;4604;48.616;9.548;2023-10-31T00:07:18;95378.47;;;12.01;100.00
9139;BME280;4604;48.616;9.548;2023-10-31T00:09:46;95371.72;;;11.98;100.00
9139;BME280;4604;48.616;9.548;2023-10-31T00:12:12;95382.38;;;12.05;100.00
9139;BME280;4604;48.616;9.548;2023-10-31T00:14:39;95368.72;;;12.23;100.00
9139;BME280;4604;48.616;9.548;2023-10-31T00:17:05;95363.81;;;12.20;100.00
9139;BME280;4604;48.616;9.548;2023-10-31T00:19:32;95374.00;;;12.23;100.00
9139;BME280;4604;48.616;9.548;2023-10-31T00:21:58;95372.94;;;12.17;100.00
9139;BME280;4604;48.616;9.548;2023-10-31T00:24:25;95379.34;;;12.08;100.00
9139;BME280;4604;48.616;9.548;2023-10-31T00:26:53;95383.00;;;12.07;100.00
9139;BME280;4604;48.616;9.548;2023-10-31T00:29:20;95385.44;;;12.09;100.00
9139;BME280;4604;48.616;9.548;2023-10-31T00:31:46;95386.09;;;12.11;100.00
9139;BME280;4604;48.616;9.548;2023-10-31T00:34:13;95372.50;;;12.35;100.00
9139;BME280;4604;48.616;9.548;2023-10-31T00:36:39;95382.34;;;12.20;100.00
9139;BME280;4604;48.616;9.548;2023-10-31T00:39:06;95402.47;;;12.21;100.00
9139;BME280;4604;48.616;9.548;2023-10-31T00:41:33;95399.47;;;12.09;100.00
9139;BME280;4604;48.616;9.548;2023-10-31T00:44:00;95411.06;;;12.08;100.00
9139;BME280;4604;48.616;9.548;2023-10-31T00:46:27;95414.81;;;11.99;100.00
9139;BME280;4604;48.616;9.548;2023-10-31T00:48:54;95421.22;;;11.90;100.00
9139;BME280;4604;48.616;9.548;2023-10-31T00:51:20;95421.69;;;11.93;100.00
9139;BME280;4604;48.616;9.548;2023-10-31T00:53:47;95444.56;;;12.01;100.00
9139;BME280;4604;48.616;9.548;2023-10-31T00:56:14;95442.63;;;11.80;100.00
9139;BME280;4604;48.616;9.548;2023-10-31T00:58:40;95437.50;;;11.19;100.00
9139;BME280;4604;48.616;9.548;2023-10-31T01:01:08;95425.56;;;11.08;100.00
9139;BME280;4604;48.616;9.548;2023-10-31T01:03:35;95426.91;;;11.04;100.00
9139;BME280;4604;48.616;9.548;2023-10-31T01:06:01;95428.84;;;11.10;100.00
9139;BME280;4604;48.616;9.548;2023-10-31T01:08:28;95418.66;;;11.07;100.00
9139;BME280;4604;48.616;9.548;2023-10-31T01:10:55;95428.66;;;11.12;100.00
9139;BME280;4604;48.616;9.548;2023-10-31T01:13:22;95426.47;;;11.16;100.00
9139;BME280;4604;48.616;9.548;2023-10-31T01:15:48;95440.97;;;11.20;100.00
9139;BME280;4604;48.616;9.548;2023-10-31T01:18:16;95450.94;;;11.09;100.00
9139;BME280;4604;48.616;9.548;2023-10-31T01:20:43;95458.78;;;11.03;100.00
9139;BME280;4604;48.616;9.548;2023-10-31T01:23:09;95464.31;;;10.93;100.00
9139;BME280;4604;48.616;9.548;2023-10-31T01:25:36;95457.84;;;10.96;100.00
9139;BME280;4604;48.616;9.548;2023-10-31T01:28:03;95445.19;;;10.91;100.00
9139;BME280;4604;48.616;9.548;2023-10-31T01:30:29;95449.28;;;10.93;100.00
9139;BME280;4604;48.616;9.548;2023-10-31T01:32:56;95441.19;;;10.95;100.00
9139;BME280;4604;48.616;9.548;2023-10-31T01:35:24;95458.94;;;11.01;100.00
9139;BME280;4604;48.616;9.548;2023-10-31T01:37:50;95463.38;;;10.86;100.00
9139;BME280;4604;48.616;9.548;2023-10-31T01:40:17;95472.31;;;11.00;100.00
9139;BME280;4604;48.616;9.548;2023-10-31T01:42:43;95479.00;;;10.87;100.00
9139;BME280;4604;48.616;9.548;2023-10-31T01:45:10;95490.56;;;10.86;100.00
9139;BME280;4604;48.616;9.548;2023-10-31T01:47:37;95490.28;;;10.81;100.00
9139;BME280;4604;48.616;9.548;2023-10-31T01:50:06;95496.50;;;10.88;100.00
9139;BME280;4604;48.616;9.548;2023-10-31T01:52:35;95488.09;;;10.85;100.00
9139;BME280;4604;48.616;9.548;2023-10-31T01:55:04;95512.78;;;10.92;100.00
9139;BME280;4604;48.616;9.548;2023-10-31T01:57:31;95513.97;;;10.89;100.00
9139;BME280;4604;48.616;9.548;2023-10-31T01:59:58;95517.75;;;10.95;100.00
9139;BME280;4604;48.616;9.548;2023-10-31T02:02:25;95524.66;;;10.96;100.00
9139;BME280;4604;48.616;9.548;2023-10-31T02:04:52;95521.19;;;10.96;100.00
9139;BME280;4604;48.616;9.548;2023-10-31T02:07:19;95523.72;;;10.89;100.00
9139;BME280;4604;48.616;9.548;2023-10-31T02:09:47;95525.38;;;10.90;100.00
9139;BME280;4604;48.616;9.548;2023-10-31T02:12:32;95538.25;;;10.85;100.00
9139;BME280;4604;48.616;9.548;2023-10-31T02:14:58;95536.03;;;10.74;100.00
9139;BME280;4604;48.616;9.548;2023-10-31T02:17:28;95530.03;;;10.80;100.00
9139;BME280;4604;48.616;9.548;2023-10-31T02:19:55;95519.91;;;10.68;100.00
9139;BME280;4604;48.616;9.548;2023-10-31T02:22:23;95533.28;;;10.90;100.00
9139;BME280;4604;48.616;9.548;2023-10-31T02:24:49;95537.13;;;10.79;100.00
9139;BME280;4604;48.616;9.548;2023-10-31T02:27:16;95543.88;;;10.82;100.00
9139;BME280;4604;48.616;9.548;2023-10-31T02:29:43;95539.72;;;10.87;100.00
9139;BME280;4604;48.616;9.548;2023-10-31T02:32:09;95525.88;;;10.85;100.00
9139;BME280;4604;48.616;9.548;2023-10-31T02:34:36;95530.97;;;10.87;100.00
9139;BME280;4604;48.616;9.548;2023-10-31T02:37:02;95519.31;;;10.81;100.00
9139;BME280;4604;48.616;9.548;2023-10-31T02:39:32;95521.81;;;10.75;100.00
9139;BME280;4604;48.616;9.548;2023-10-31T02:41:58;95522.03;;;10.73;100.00
9139;BME280;4604;48.616;9.548;2023-10-31T02:44:25;95523.94;;;10.79;100.00
9139;BME280;4604;48.616;9.548;2023-10-31T02:46:51;95525.38;;;10.90;100.00
9139;BME280;4604;48.616;9.548;2023-10-31T02:49:18;95524.53;;;10.89;100.00
9139;BME280;4604;48.616;9.548;2023-10-31T02:51:44;95521.78;;;10.83;100.00
9139;BME280;4604;48.616;9.548;2023-10-31T02:54:11;95521.47;;;10.78;100.00
9139;BME280;4604;48.616;9.548;2023-10-31T02:56:39;95531.84;;;10.79;100.00
9139;BME280;4604;48.616;9.548;2023-10-31T02:59:05;95531.34;;;10.84;100.00
9139;BME280;4604;48.616;9.548;2023-10-31T03:01:32;95541.59;;;10.79;100.00
9139;BME280;4604;48.616;9.548;2023-10-31T03:03:58;95547.84;;;10.78;100.00
9139;BME280;4604;48.616;9.548;2023-10-31T03:06:25;95548.50;;;10.80;100.00
9139;BME280;4604;48.616;9.548;2023-10-31T03:08:51;95560.53;;;10.82;100.00
9139;BME280;4604;48.616;9.548;2023-10-31T03:11:22;95556.63;;;10.78;100.00
9139;BME280;4604;48.616;9.548;2023-10-31T03:13:50;95562.88;;;10.77;100.00
9139;BME280;4604;48.616;9.548;2023-10-31T03:16:16;95561.69;;;10.80;100.00
9139;BME280;4604;48.616;9.548;2023-10-31T03:18:43;95544.28;;;10.70;100.00
9139;BME280;4604;48.616;9.548;2023-10-31T03:21:10;95562.06;;;10.77;100.00
9139;BME280;4604;48.616;9.548;2023-10-31T03:23:36;95562.22;;;10.75;100.00
9139;BME280;4604;48.616;9.548;2023-10-31T03:26:03;95564.09;;;10.66;100.00
9139;BME280;4604;48.616;9.548;2023-10-31T03:28:29;95557.38;;;10.56;100.00
9139;BME280;4604;48.616;9.548;2023-10-31T03:30:57;95568.63;;;10.49;100.00
9139;BME280;4604;48.616;9.548;2023-10-31T03:33:24;95574.72;;;10.50;100.00
9139;BME280;4604;48.616;9.548;2023-10-31T03:35:50;95579.28;;;10.64;100.00
9139;BME280;4604;48.616;9.548;2023-10-31T03:38:17;95591.03;;;10.54;100.00
9139;BME280;4604;48.616;9.548;2023-10-31T03:40:43;95586.66;;;10.38;100.00
9139;BME280;4604;48.616;9.548;2023-10-31T03:43:10;95586.44;;;10.47;100.00
9139;BME280;4604;48.616;9.548;2023-10-31T03:45:36;95595.56;;;10.37;100.00
9139;BME280;4604;48.616;9.548;2023-10-31T03:48:05;95591.06;;;10.45;100.00
9139;BME280;4604;48.616;9.548;2023-10-31T03:50:31;95597.03;;;10.39;100.00
9139;BME280;4604;48.616;9.548;2023-10-31T03:52:58;95599.53;;;10.33;100.00
9139;BME280;4604;48.616;9.548;2023-10-31T03:55:24;95592.78;;;10.22;100.00
9139;BME280;4604;48.616;9.548;2023-10-31T03:57:51;95592.25;;;10.26;100.00
9139;BME280;4604;48.616;9.548;2023-10-31T04:00:17;95596.00;;;10.48;100.00
9139;BME280;4604;48.616;9.548;2023-10-31T04:02:44;95601.19;;;10.17;100.00
9139;BME280;4604;48.616;9.548;2023-10-31T04:05:12;95599.88;;;10.13;100.00
9139;BME280;4604;48.616;9.548;2023-10-31T04:07:38;95598.25;;;10.12;100.00
9139;BME280;4604;48.616;9.548;2023-10-31T04:10:06;95598.56;;;10.09;100.00
9139;BME280;4604;48.616;9.548;2023-10-31T04:12:33;95586.53;;;10.06;100.00
9139;BME280;4604;48.616;9.548;2023-10-31T04:14:59;95612.88;;;10.23;100.00
9139;BME280;4604;48.616;9.548;2023-10-31T04:17:26;95599.41;;;10.10;100.00
9139;BME280;4604;48.616;9.548;2023-10-31T04:19:52;95605.00;;;10.15;100.00
9139;BME280;4604;48.616;9.548;2023-10-31T04:22:20;95606.63;;;10.16;100.00
9139;BME280;4604;48.616;9.548;2023-10-31T04:24:47;95606.47;;;10.09;100.00
9139;BME280;4604;48.616;9.548;2023-10-31T04:27:13;95599.38;;;10.18;100.00
9139;BME280;4604;48.616;9.548;2023-10-31T04:29:40;95595.41;;;10.22;100.00
9139;BME280;4604;48.616;9.548;2023-10-31T04:32:06;95607.75;;;10.21;100.00
9139;BME280;4604;48.616;9.548;2023-10-31T04:34:33;95603.50;;;10.20;100.00
9139;BME280;4604;48.616;9.548;2023-10-31T04:36:59;95605.63;;;10.17;100.00
9139;BME280;4604;48.616;9.548;2023-10-31T04:39:27;95605.78;;;10.23;100.00
9139;BME280;4604;48.616;9.548;2023-10-31T04:41:54;95625.38;;;10.37;100.00
9139;BME280;4604;48.616;9.548;2023-10-31T04:44:20;95611.56;;;10.27;100.00
9139;BME280;4604;48.616;9.548;2023-10-31T04:46:47;95607.75;;;10.21;100.00
9139;BME280;4604;48.616;9.548;2023-10-31T04:49:14;95613.19;;;10.36;100.00
9139;BME280;4604;48.616;9.548;2023-10-31T04:51:41;95615.16;;;10.26;100.00
9139;BME280;4604;48.616;9.548;2023-10-31T04:54:07;95612.22;;;10.21;100.00
9139;BME280;4604;48.616;9.548;2023-10-31T04:56:35;95603.34;;;10.14;100.00
9139;BME280;4604;48.616;9.548;2023-10-31T04:59:02;95612.22;;;10.21;100.00
9139;BME280;4604;48.616;9.548;2023-10-31T05:01:29;95624.72;;;10.19;100.00
9139;BME280;4604;48.616;9.548;2023-10-31T05:03:56;95614.19;;;10.19;100.00
9139;BME280;4604;48.616;9.548;2023-10-31T05:06:22;95619.81;;;10.16;100.00
9139;BME280;4604;48.616;9.548;2023-10-31T05:08:49;95609.09;;;10.09;100.00
9139;BME280;4604;48.616;9.548;2023-10-31T05:11:16;95622.44;;;10.16;100.00
9139;BME280;4604;48.616;9.548;2023-10-31T05:13:44;95625.09;;;10.16;100.00
9139;BME280;4604;48.616;9.548;2023-10-31T05:16:10;95630.19;;;10.17;100.00
9139;BME280;4604;48.616;9.548;2023-10-31T05:18:38;95634.47;;;10.18;100.00
9139;BME280;4604;48.616;9.548;2023-10-31T05:21:05;95623.59;;;10.30;100.00
9139;BME280;4604;48.616;9.548;2023-10-31T05:23:31;95630.50;;;10.14;100.00
9139;BME280;4604;48.616;9.548;2023-10-31T05:25:58;95636.44;;;10.16;100.00
9139;BME280;4604;48.616;9.548;2023-10-31T05:28:24;95632.69;;;10.11;100.00
9139;BME280;4604;48.616;9.548;2023-10-31T05:30:52;95647.16;;;10.23;100.00
9139;BME280;4604;48.616;9.548;2023-10-31T05:33:19;95653.94;;;10.17;100.00
9139;BME280;4604;48.616;9.548;2023-10-31T05:35:45;95639.06;;;10.16;100.00
9139;BME280;4604;48.616;9.548;2023-10-31T05:38:12;95641.06;;;10.14;100.00
9139;BME280;4604;48.616;9.548;2023-10-31T05:40:38;95647.34;;;10.05;100.00
9139;BME280;4604;48.616;9.548;2023-10-31T05:43:05;95648.00;;;10.07;100.00
9139;BME280;4604;48.616;9.548;2023-10-31T05:45:31;95642.25;;;10.03;100.00
9139;BME280;4604;48.616;9.548;2023-10-31T05:48:00;95661.38;;;9.97;100.00
9139;BME280;4604;48.616;9.548;2023-10-31T05:50:27;95662.50;;;10.03;100.00
9139;BME280;4604;48.616;9.548;2023-10-31T05:52:53;95667.28;;;10.07;100.00
9139;BME280;4604;48.616;9.548;2023-10-31T05:55:20;95661.66;;;10.11;99.97
9139;BME280;4604;48.616;9.548;2023-10-31T05:57:46;95663.47;;;10.02;100.00
9139;BME280;4604;48.616;9.548;2023-10-31T06:00:13;95675.84;;;10.01;100.00
9139;BME280;4604;48.616;9.548;2023-10-31T06:02:40;95688.84;;;10.19;100.00
9139;BME280;4604;48.616;9.548;2023-10-31T06:05:08;95686.72;;;10.15;100.00
9139;BME280;4604;48.616;9.548;2023-10-31T06:07:35;95693.13;;;10.04;100.00
9139;BME280;4604;48.616;9.548;2023-10-31T06:10:01;95701.03;;;10.20;99.14
9139;BME280;4604;48.616;9.548;2023-10-31T06:12:28;95694.78;;;10.30;97.84
9139;BME280;4604;48.616;9.548;2023-10-31T06:14:55;95697.25;;;10.15;99.15
9139;BME280;4604;48.616;9.548;2023-10-31T06:17:22;95694.63;;;10.06;98.47
9139;BME280;4604;48.616;9.548;2023-10-31T06:19:50;95710.94;;;10.10;98.54
9139;BME280;4604;48.616;9.548;2023-10-31T06:22:18;95712.09;;;10.07;97.57
9139;BME280;4604;48.616;9.548;2023-10-31T06:24:44;95710.28;;;9.92;100.00
9139;BME280;4604;48.616;9.548;2023-10-31T06:27:11;95726.09;;;9.92;100.00
9139;BME280;4604;48.616;9.548;2023-10-31T06:29:37;95741.09;;;9.91;100.00
9139;BME280;4604;48.616;9.548;2023-10-31T06:32:05;95735.50;;;10.02;100.00
9139;BME280;4604;48.616;9.548;2023-10-31T06:34:31;95734.34;;;9.89;100.00
9139;BME280;4604;48.616;9.548;2023-10-31T06:36:58;95743.53;;;9.84;100.00
9139;BME280;4604;48.616;9.548;2023-10-31T06:39:26;95758.53;;;9.92;100.00
9139;BME280;4604;48.616;9.548;2023-10-31T06:41:54;95760.84;;;10.03;99.53
9139;BME280;4604;48.616;9.548;2023-10-31T06:44:21;95756.41;;;10.04;99.35
9139;BME280;4604;48.616;9.548;2023-10-31T06:46:48;95773.19;;;9.95;98.99
9139;BME280;4604;48.616;9.548;2023-10-31T06:49:15;95768.44;;;9.98;98.30
9139;BME280;4604;48.616;9.548;2023-10-31T06:51:41;95769.75;;;9.94;99.26
9139;BME280;4604;48.616;9.548;2023-10-31T06:54:08;95768.75;;;10.03;98.61
9139;BME280;4604;48.616;9.548;2023-10-31T06:56:36;95776.50;;;10.13;98.54
9139;BME280;4604;48.616;9.548;2023-10-31T06:59:02;95771.56;;;10.10;98.68
9139;BME280;4604;48.616;9.548;2023-10-31T07:01:30;95776.66;;;10.12;100.00
9139;BME280;4604;48.616;9.548;2023-10-31T07:03:56;95766.94;;;10.20;100.00
9139;BME280;4604;48.616;9.548;2023-10-31T07:06:23;95777.16;;;10.15;99.62
9139;BME280;4604;48.616;9.548;2023-10-31T07:08:49;95785.06;;;10.15;97.55
9139;BME280;4604;48.616;9.548;2023-10-31T07:11:16;95785.41;;;10.20;96.90
9139;BME280;4604;48.616;9.548;2023-10-31T07:13:44;95785.28;;;10.30;96.16
9139;BME280;4604;48.616;9.548;2023-10-31T07:16:10;95788.56;;;10.32;96.26
9139;BME280;4604;48.616;9.548;2023-10-31T07:18:37;95799.25;;;10.22;97.50
9139;BME280;4604;48.616;9.548;2023-10-31T07:21:04;95801.69;;;10.24;96.97
9139;BME280;4604;48.616;9.548;2023-10-31T07:23:31;95794.31;;;10.27;96.69
9139;BME280;4604;48.616;9.548;2023-10-31T07:25:57;95789.88;;;10.20;95.82
9139;BME280;4604;48.616;9.548;2023-10-31T07:28:24;95795.94;;;10.20;96.97
9139;BME280;4604;48.616;9.548;2023-10-31T07:30:52;95798.91;;;10.25;97.08
9139;BME280;4604;48.616;9.548;2023-10-31T07:33:18;95804.53;;;10.31;97.79
9139;BME280;4604;48.616;9.548;2023-10-31T07:35:45;95809.31;;;10.35;97.87
9139;BME280;4604;48.616;9.548;2023-10-31T07:38:11;95805.03;;;10.42;97.24
9139;BME280;4604;48.616;9.548;2023-10-31T07:40:38;95804.19;;;10.58;96.12
9139;BME280;4604;48.616;9.548;2023-10-31T07:43:04;95811.31;;;10.49;94.59
9139;BME280;4604;48.616;9.548;2023-10-31T07:45:31;95815.59;;;10.34;93.52
9139;BME280;4604;48.616;9.548;2023-10-31T07:47:59;95812.13;;;10.34;94.21
9139;BME280;4604;48.616;9.548;2023-10-31T07:50:25;95807.34;;;10.37;92.93
9139;BME280;4604;48.616;9.548;2023-10-31T07:52:52;95820.53;;;10.45;92.03
9139;BME280;4604;48.616;9.548;2023-10-31T07:55:19;95808.16;;;10.62;92.76
9139;BME280;4604;48.616;9.548;2023-10-31T07:57:45;95820.19;;;10.57;92.13
9139;BME280;4604;48.616;9.548;2023-10-31T08:00:13;95829.44;;;10.61;91.99
9139;BME280;4604;48.616;9.548;2023-10-31T08:02:40;95825.81;;;10.54;91.36
9139;BME280;4604;48.616;9.548;2023-10-31T08:05:09;95827.28;;;10.64;91.27
9139;BME280;4604;48.616;9.548;2023-10-31T08:07:36;95832.56;;;10.64;92.08
9139;BME280;4604;48.616;9.548;2023-10-31T08:10:03;95825.13;;;10.76;91.62
9139;BME280;4604;48.616;9.548;2023-10-31T08:12:30;95832.53;;;10.73;87.53
9139;BME280;4604;48.616;9.548;2023-10-31T08:14:56;95838.78;;;10.80;87.68
9139;BME280;4604;48.616;9.548;2023-10-31T08:17:23;95837.94;;;10.87;87.63
9139;BME280;4604;48.616;9.548;2023-10-31T08:19:50;95829.03;;;11.05;85.69
9139;BME280;4604;48.616;9.548;2023-10-31T08:22:18;95842.34;;;11.11;83.01
9139;BME280;4604;48.616;9.548;2023-10-31T08:24:44;95855.59;;;11.03;82.67
9139;BME280;4604;48.616;9.548;2023-10-31T08:27:11;95843.88;;;10.89;81.90
9139;BME280;4604;48.616;9.548;2023-10-31T08:29:38;95849.81;;;11.00;83.02
9139;BME280;4604;48.616;9.548;2023-10-31T08:32:05;95833.16;;;10.99;80.81
9139;BME280;4604;48.616;9.548;2023-10-31T08:34:32;95857.72;;;11.00;81.10
9139;BME280;4604;48.616;9.548;2023-10-31T08:36:58;95830.31;;;11.17;80.23
9139;BME280;4604;48.616;9.548;2023-10-31T08:39:27;95852.06;;;11.27;78.73
9139;BME280;4604;48.616;9.548;2023-10-31T08:41:55;95857.88;;;11.14;77.84
9139;BME280;4604;48.616;9.548;2023-10-31T08:44:22;95838.19;;;11.25;77.54
9139;BME280;4604;48.616;9.548;2023-10-31T08:46:48;95831.63;;;11.13;78.87
9139;BME280;4604;48.616;9.548;2023-10-31T08:49:16;95839.06;;;11.18;78.63
9139;BME280;4604;48.616;9.548;2023-10-31T08:51:42;95841.50;;;11.27;79.02
9139;BME280;4604;48.616;9.548;2023-10-31T08:54:09;95863.44;;;11.28;79.27
9139;BME280;4604;48.616;9.548;2023-10-31T08:56:36;95852.13;;;11.50;79.04
9139;BME280;4604;48.616;9.548;2023-10-31T08:59:03;95851.81;;;11.53;78.29
9139;BME280;4604;48.616;9.548;2023-10-31T09:01:30;95854.91;;;11.57;79.14
9139;BME280;4604;48.616;9.548;2023-10-31T09:03:56;95860.16;;;11.65;78.32
9139;BME280;4604;48.616;9.548;2023-10-31T09:06:24;95850.97;;;11.53;79.89
9139;BME280;4604;48.616;9.548;2023-10-31T09:08:50;95861.53;;;11.53;76.97
9139;BME280;4604;48.616;9.548;2023-10-31T09:11:17;95864.00;;;11.54;78.20
9139;BME280;4604;48.616;9.548;2023-10-31T09:13:46;95861.50;;;11.61;79.94
9139;BME280;4604;48.616;9.548;2023-10-31T09:16:12;95859.38;;;11.56;79.05
9139;BME280;4604;48.616;9.548;2023-10-31T09:18:39;95849.44;;;11.67;81.06
9139;BME280;4604;48.616;9.548;2023-10-31T09:21:06;95863.53;;;11.82;80.31
9139;BME280;4604;48.616;9.548;2023-10-31T09:23:33;95852.16;;;11.82;78.87
9139;BME280;4604;48.616;9.548;2023-10-31T09:25:59;95857.19;;;11.68;81.01
9139;BME280;4604;48.616;9.548;2023-10-31T09:28:26;95855.44;;;11.92;82.11
9139;BME280;4604;48.616;9.548;2023-10-31T09:30:54;95849.69;;;11.88;80.72
9139;BME280;4604;48.616;9.548;2023-10-31T09:33:21;95844.47;;;12.03;81.57
9139;BME280;4604;48.616;9.548;2023-10-31T09:35:47;95847.81;;;12.20;81.89
9139;BME280;4604;48.616;9.548;2023-10-31T09:38:14;95845.34;;;12.18;80.82
9139;BME280;4604;48.616;9.548;2023-10-31T09:40:40;95849.06;;;12.32;80.20
9139;BME280;4604;48.616;9.548;2023-10-31T09:43:07;95856.88;;;12.26;80.84
9139;BME280;4604;48.616;9.548;2023-10-31T09:45:34;95850.25;;;12.30;80.89
9139;BME280;4604;48.616;9.548;2023-10-31T09:48:01;95857.41;;;12.44;81.34
9139;BME280;4604;48.616;9.548;2023-10-31T09:50:29;95870.84;;;12.11;79.94
9139;BME280;4604;48.616;9.548;2023-10-31T09:52:56;95849.69;;;12.11;81.17
9139;BME280;4604;48.616;9.548;2023-10-31T09:55:24;95868.91;;;12.05;81.83
9139;BME280;4604;48.616;9.548;2023-10-31T09:57:50;95868.09;;;12.28;81.37
9139;BME280;4604;48.616;9.548;2023-10-31T10:00:18;95862.28;;;12.32;80.26
9139;BME280;4604;48.616;9.548;2023-10-31T10:02:44;95867.28;;;12.27;79.84
9139;BME280;4604;48.616;9.548;2023-10-31T10:05:14;95856.03;;;12.02;80.68
9139;BME280;4604;48.616;9.548;2023-10-31T10:07:42;95874.75;;;12.24;81.61
9139;BME280;4604;48.616;9.548;2023-10-31T10:10:10;95863.69;;;12.20;80.40
9139;BME280;4604;48.616;9.548;2023-10-31T10:12:37;95873.69;;;12.33;82.15
9139;BME280;4604;48.616;9.548;2023-10-31T10:15:04;95871.69;;;12.58;81.20
9139;BME280;4604;48.616;9.548;2023-10-31T10:17:32;95878.94;;;12.64;80.36
9139;BME280;4604;48.616;9.548;2023-10-31T10:20:06;95877.22;;;12.48;78.56
9139;BME280;4604;48.616;9.548;2023-10-31T10:22:37;95878.06;;;12.49;79.82
9139;BME280;4604;48.616;9.548;2023-10-31T10:25:05;95875.34;;;12.57;78.95
9139;BME280;4604;48.616;9.548;2023-10-31T10:27:32;95872.84;;;12.55;77.22
9139;BME280;4604;48.616;9.548;2023-10-31T10:29:58;95875.78;;;12.60;78.32
9139;BME280;4604;48.616;9.548;2023-10-31T10:32:25;95874.28;;;12.43;78.87
9139;BME280;4604;48.616;9.548;2023-10-31T10:34:51;95879.69;;;12.27;79.08
9139;BME280;4604;48.616;9.548;2023-10-31T10:37:18;95884.03;;;12.19;79.46
9139;BME280;4604;48.616;9.548;2023-10-31T10:39:47;95891.75;;;12.29;80.72
9139;BME280;4604;48.616;9.548;2023-10-31T10:42:17;95919.63;;;12.40;79.63
9139;BME280;4604;48.616;9.548;2023-10-31T10:44:45;95889.66;;;12.16;79.53
9139;BME280;4604;48.616;9.548;2023-10-31T10:47:13;95901.38;;;12.22;80.23
9139;BME280;4604;48.616;9.548;2023-10-31T10:49:42;95895.69;;;12.02;80.86
9139;BME280;4604;48.616;9.548;2023-10-31T10:52:16;95895.22;;;11.98;81.00
9139;BME280;4604;48.616;9.548;2023-10-31T10:54:51;95900.66;;;12.05;79.55
9139;BME280;4604;48.616;9.548;2023-10-31T10:57:24;95901.38;;;11.91;80.11
9139;BME280;4604;48.616;9.548;2023-10-31T10:59:54;95899.19;;;12.03;80.99
9139;BME280;4604;48.616;9.548;2023-10-31T11:02:24;95908.59;;;12.05;80.36
9139;BME280;4604;48.616;9.548;2023-10-31T11:04:52;95904.63;;;12.01;81.27
9139;BME280;4604;48.616;9.548;2023-10-31T11:07:20;95911.91;;;11.99;81.84
9139;BME280;4604;48.616;9.548;2023-10-31T11:09:49;95908.09;;;12.02;81.40
9139;BME280;4604;48.616;9.548;2023-10-31T11:12:16;95904.84;;;11.91;81.93
9139;BME280;4604;48.616;9.548;2023-10-31T11:14:45;95906.34;;;11.86;82.11
9139;BME280;4604;48.616;9.548;2023-10-31T11:17:21;95906.19;;;11.87;83.26
9139;BME280;4604;48.616;9.548;2023-10-31T11:19:50;95902.22;;;11.83;83.26
9139;BME280;4604;48.616;9.548;2023-10-31T11:22:17;95911.16;;;11.74;83.19
9139;BME280;4604;48.616;9.548;2023-10-31T11:24:44;95904.03;;;11.83;83.18
9139;BME280;4604;48.616;9.548;2023-10-31T11:27:12;95902.72;;;11.87;83.55
9139;BME280;4604;48.616;9.548;2023-10-31T11:29:39;95913.16;;;12.11;83.12
9139;BME280;4604;48.616;9.548;2023-10-31T11:32:08;95914.75;;;11.97;83.65
9139;BME280;4604;48.616;9.548;2023-10-31T11:34:37;95912.25;;;11.96;82.79
9139;BME280;4604;48.616;9.548;2023-10-31T11:37:19;95922.47;;;11.99;83.71
9139;BME280;4604;48.616;9.548;2023-10-31T11:42:44;95921.00;;;11.96;85.66
9139;BME280;4604;48.616;9.548;2023-10-31T11:45:13;95911.44;;;11.95;85.93
9139;BME280;4604;48.616;9.548;2023-10-31T11:47:49;95920.34;;;12.03;86.39
9139;BME280;4604;48.616;9.548;2023-10-31T11:50:16;95918.94;;;12.15;86.93
9139;BME280;4604;48.616;9.548;2023-10-31T11:52:43;95926.47;;;12.26;87.37
9139;BME280;4604;48.616;9.548;2023-10-31T11:55:11;95935.06;;;12.28;86.72
9139;BME280;4604;48.616;9.548;2023-10-31T11:57:39;95931.50;;;12.44;85.70
9139;BME280;4604;48.616;9.548;2023-10-31T12:00:20;95931.97;;;12.48;85.81
9139;BME280;4604;48.616;9.548;2023-10-31T12:02:57;95922.38;;;12.70;84.91
9139;BME280;4604;48.616;9.548;2023-10-31T12:05:23;95930.41;;;12.99;83.12
9139;BME280;4604;48.616;9.548;2023-10-31T12:07:50;95925.34;;;12.90;82.51
9139;BME280;4604;48.616;9.548;2023-10-31T12:10:21;95924.66;;;12.96;82.19
9139;BME280;4604;48.616;9.548;2023-10-31T12:12:48;95922.03;;;13.11;82.75
9139;BME280;4604;48.616;9.548;2023-10-31T12:15:16;95891.16;;;13.03;83.14
9139;BME280;4604;48.616;9.548;2023-10-31T12:17:43;95925.69;;;13.47;80.40
9139;BME280;4604;48.616;9.548;2023-10-31T12:20:10;95918.91;;;13.30;81.10
9139;BME280;4604;48.616;9.548;2023-10-31T12:22:37;95923.22;;;13.08;79.76
9139;BME280;4604;48.616;9.548;2023-10-31T12:25:06;95930.25;;;13.01;80.74
9139;BME280;4604;48.616;9.548;2023-10-31T12:27:43;95936.63;;;13.06;81.39
9139;BME280;4604;48.616;9.548;2023-10-31T12:30:11;95927.22;;;13.04;80.75
9139;BME280;4604;48.616;9.548;2023-10-31T12:32:40;95933.47;;;13.11;81.49
9139;BME280;4604;48.616;9.548;2023-10-31T12:35:08;95924.44;;;13.20;81.98
9139;BME280;4604;48.616;9.548;2023-10-31T12:37:42;95929.28;;;13.17;82.43
9139;BME280;4604;48.616;9.548;2023-10-31T12:40:10;95934.88;;;13.22;81.35
9139;BME280;4604;48.616;9.548;2023-10-31T12:42:37;95934.44;;;12.95;81.51
9139;BME280;4604;48.616;9.548;2023-10-31T12:45:05;95937.94;;;13.11;80.33
9139;BME280;4604;48.616;9.548;2023-10-31T12:47:32;95942.59;;;13.32;79.85
9139;BME280;4604;48.616;9.548;2023-10-31T12:50:08;95937.69;;;13.20;79.59
9139;BME280;4604;48.616;9.548;2023-10-31T12:52:46;95931.72;;;13.41;80.34
9139;BME280;4604;48.616;9.548;2023-10-31T12:55:13;95931.72;;;13.41;78.41
9139;BME280;4604;48.616;9.548;2023-10-31T12:57:39;95922.31;;;13.16;78.48
9139;BME280;4604;48.616;9.548;2023-10-31T13:00:07;95919.78;;;13.22;78.64
9139;BME280;4604;48.616;9.548;2023-10-31T13:02:37;95931.56;;;13.20;79.37
9139;BME280;4604;48.616;9.548;2023-10-31T13:05:12;95938.06;;;13.17;79.00
9139;BME280;4604;48.616;9.548;2023-10-31T13:07:40;95938.94;;;13.10;80.07
9139;BME280;4604;48.616;9.548;2023-10-31T13:10:07;95934.00;;;13.06;80.58
9139;BME280;4604;48.616;9.548;2023-10-31T13:12:35;95944.59;;;13.06;82.63
9139;BME280;4604;48.616;9.548;2023-10-31T13:15:02;95947.97;;;13.00;84.59
9139;BME280;4604;48.616;9.548;2023-10-31T13:17:29;95958.16;;;12.89;88.11
9139;BME280;4604;48.616;9.548;2023-10-31T13:19:57;95959.69;;;12.83;92.17
9139;BME280;4604;48.616;9.548;2023-10-31T13:22:25;95959.97;;;12.65;95.37